Terminal Aerodrome Forecast
Issued by NWS Fort Wayne, IN

Home | Current Version | Previous Version | Graphics & Text | Print | Product List | Glossary On
Versions: 1 2 3 4 5 6 7 8 9 10 11 12 13
000
FTUS43 KIWX 242300
TAFFWA
TAF
KFWA 242329Z 2500/2524 VRB04KT P6SM SCT100 OVC200
     FM250300 10007KT P6SM BKN060
     FM250800 09011G17KT P6SM OVC050
     FM251600 09013G21KT 5SM -RA BR OVC025=

USA.gov is the U.S. government's official web portal to all federal, state and local government web resources and services.